createdAt,value
2023-05-10T00:01:44.615Z,10.80
2023-05-10T00:06:04.290Z,10.70
2023-05-10T00:10:23.981Z,10.60
2023-05-10T00:14:41.868Z,10.60
2023-05-10T00:19:00.834Z,10.60
2023-05-10T00:23:19.615Z,10.60
2023-05-10T00:27:39.079Z,10.60
2023-05-10T00:31:57.388Z,10.50
2023-05-10T00:36:18.364Z,10.50
2023-05-10T00:40:39.678Z,10.50
2023-05-10T00:45:04.600Z,10.40
2023-05-10T00:49:23.373Z,10.40
2023-05-10T00:53:40.531Z,10.40
2023-05-10T00:57:59.999Z,10.30
2023-05-10T01:02:19.624Z,10.30
2023-05-10T01:06:39.555Z,10.30
2023-05-10T01:10:59.429Z,10.20
2023-05-10T01:15:19.485Z,10.30
2023-05-10T01:19:39.154Z,10.30
2023-05-10T01:24:25.911Z,10.30
2023-05-10T01:29:13.872Z,10.30
2023-05-10T01:33:41.453Z,10.30
2023-05-10T01:38:10.065Z,10.30
2023-05-10T01:42:38.671Z,10.40
2023-05-10T01:47:06.617Z,10.40
2023-05-10T01:51:30.184Z,10.40
2023-05-10T01:55:51.420Z,10.40
2023-05-10T02:00:13.245Z,10.40
2023-05-10T02:04:38.466Z,10.40
2023-05-10T02:08:59.129Z,10.40
2023-05-10T02:13:19.146Z,10.40
2023-05-10T02:17:41.031Z,10.40
2023-05-10T02:22:02.265Z,10.30
2023-05-10T02:26:24.816Z,10.30
2023-05-10T02:30:42.614Z,10.30
2023-05-10T02:35:02.950Z,10.30
2023-05-10T02:39:22.833Z,10.20
2023-05-10T02:43:45.398Z,10.20
2023-05-10T02:48:03.885Z,10.20
2023-05-10T02:52:27.401Z,10.20
2023-05-10T02:56:52.729Z,10.10
2023-05-10T03:01:11.557Z,10.10
2023-05-10T03:05:30.945Z,10.00
2023-05-10T03:09:52.257Z,10.00
2023-05-10T03:14:18.696Z,10.00
2023-05-10T03:18:46.578Z,10.00
2023-05-10T03:23:09.443Z,10.00
2023-05-10T03:27:30.216Z,10.00
2023-05-10T03:31:50.384Z,9.90
2023-05-10T03:36:10.351Z,10.00
2023-05-10T03:40:32.650Z,10.00
2023-05-10T03:44:50.934Z,10.10
2023-05-10T03:49:08.575Z,10.20
2023-05-10T03:53:30.866Z,10.30
2023-05-10T03:57:51.219Z,10.60
2023-05-10T04:02:08.839Z,10.80
2023-05-10T04:06:30.725Z,11.20
2023-05-10T04:10:52.953Z,11.60
2023-05-10T04:15:12.366Z,12.00
2023-05-10T04:19:32.266Z,12.30
2023-05-10T04:23:51.650Z,12.70
2023-05-10T04:28:11.269Z,13.00
2023-05-10T04:32:30.843Z,13.40
2023-05-10T04:36:48.954Z,13.80
2023-05-10T04:41:07.664Z,14.10
2023-05-10T04:45:26.493Z,14.60
2023-05-10T04:49:47.802Z,15.20
2023-05-10T04:54:07.147Z,15.70
2023-05-10T04:58:25.093Z,16.20
2023-05-10T05:02:46.777Z,16.50
2023-05-10T05:07:04.270Z,16.80
2023-05-10T05:11:23.161Z,17.00
2023-05-10T05:15:40.304Z,17.30
2023-05-10T05:20:00.256Z,17.70
2023-05-10T05:24:19.518Z,18.10
2023-05-10T05:28:38.392Z,18.40
2023-05-10T05:32:57.285Z,18.40
2023-05-10T05:37:18.845Z,18.50
2023-05-10T05:41:37.887Z,18.60
2023-05-10T05:45:55.869Z,18.50
2023-05-10T05:50:14.190Z,18.40
2023-05-10T05:54:34.064Z,18.70
2023-05-10T05:58:53.161Z,19.10
2023-05-10T06:03:11.704Z,19.30
2023-05-10T06:07:29.181Z,19.20
2023-05-10T06:11:49.242Z,19.00
2023-05-10T06:16:08.845Z,19.20
2023-05-10T06:20:26.576Z,18.90
2023-05-10T06:24:44.560Z,18.40
2023-05-10T06:29:04.518Z,17.80
2023-05-10T06:33:23.761Z,17.40
2023-05-10T06:37:41.913Z,17.10
2023-05-10T06:41:59.868Z,16.80
2023-05-10T06:46:25.403Z,16.60
2023-05-10T06:50:45.089Z,16.40
2023-05-10T06:55:04.019Z,16.30
2023-05-10T06:59:22.694Z,16.40
2023-05-10T07:03:43.660Z,16.80
2023-05-10T07:08:04.345Z,17.70
2023-05-10T07:12:21.594Z,18.80
2023-05-10T07:16:39.614Z,19.90
2023-05-10T07:20:59.845Z,21.00
2023-05-10T07:25:18.960Z,21.60
2023-05-10T07:29:37.141Z,21.90
2023-05-10T07:33:54.904Z,21.90
2023-05-10T07:38:14.449Z,21.60
2023-05-10T07:42:34.132Z,21.60
2023-05-10T07:46:52.589Z,21.30
2023-05-10T07:51:12.983Z,20.80
2023-05-10T07:55:33.071Z,20.30
2023-05-10T07:59:52.644Z,19.90
2023-05-10T08:04:10.939Z,19.60
2023-05-10T08:08:28.666Z,19.50
2023-05-10T08:12:48.072Z,19.30
2023-05-10T08:17:07.670Z,19.30
2023-05-10T08:21:25.907Z,19.20
2023-05-10T08:25:43.733Z,19.00
2023-05-10T08:30:03.291Z,19.00
2023-05-10T08:34:23.292Z,19.00
2023-05-10T08:38:41.189Z,18.90
2023-05-10T08:43:05.182Z,18.80
2023-05-10T08:47:24.860Z,18.70
2023-05-10T08:51:49.260Z,18.50
2023-05-10T08:56:09.300Z,18.20
2023-05-10T09:00:26.826Z,18.00
2023-05-10T09:04:46.593Z,17.80
2023-05-10T09:09:06.424Z,17.50
2023-05-10T09:13:25.029Z,17.40
2023-05-10T09:17:46.127Z,17.40
2023-05-10T09:22:04.633Z,17.50
2023-05-10T09:26:27.782Z,17.50
2023-05-10T09:30:45.435Z,17.40
2023-05-10T09:35:09.375Z,17.20
2023-05-10T09:39:39.850Z,16.90
2023-05-10T09:43:58.637Z,16.70
2023-05-10T09:48:16.006Z,16.40
2023-05-10T09:52:48.975Z,16.10
2023-05-10T09:57:20.869Z,15.80
2023-05-10T10:01:38.321Z,15.40
2023-05-10T10:05:57.014Z,15.00
2023-05-10T10:10:17.273Z,14.60
2023-05-10T10:14:37.061Z,14.40
2023-05-10T10:18:56.664Z,14.20
2023-05-10T10:23:16.662Z,14.10
2023-05-10T10:27:45.506Z,14.00
2023-05-10T10:32:13.214Z,13.90
2023-05-10T10:36:34.977Z,13.90
2023-05-10T10:41:07.988Z,14.00
2023-05-10T10:45:28.741Z,14.20
2023-05-10T10:49:53.962Z,14.30
2023-05-10T10:54:16.599Z,14.50
2023-05-10T10:58:34.470Z,14.60
2023-05-10T11:02:53.947Z,14.80
2023-05-10T11:07:21.834Z,14.90
2023-05-10T11:11:51.334Z,15.00
2023-05-10T11:16:16.487Z,14.90
2023-05-10T11:20:41.751Z,14.80
2023-05-10T11:25:00.777Z,14.70
2023-05-10T11:29:21.051Z,14.60
2023-05-10T11:33:45.667Z,14.60
2023-05-10T11:38:08.242Z,14.50
2023-05-10T11:42:30.414Z,14.50
2023-05-10T11:46:48.148Z,14.40
2023-05-10T11:51:06.147Z,14.40
2023-05-10T11:55:25.275Z,14.20
2023-05-10T11:59:46.831Z,14.10
2023-05-10T12:04:06.916Z,14.20
2023-05-10T12:08:25.905Z,14.20
2023-05-10T12:12:46.704Z,14.20
2023-05-10T12:17:07.997Z,14.20
2023-05-10T12:21:30.044Z,14.30
2023-05-10T12:25:49.083Z,14.30
2023-05-10T12:30:08.095Z,14.30
2023-05-10T12:34:34.034Z,14.40
2023-05-10T12:38:53.682Z,14.40
2023-05-10T12:43:13.390Z,14.40
2023-05-10T12:47:31.402Z,14.40
2023-05-10T12:51:50.887Z,14.40
2023-05-10T12:56:10.799Z,14.50
2023-05-10T13:00:28.819Z,14.50
2023-05-10T13:04:48.957Z,14.50
2023-05-10T13:09:21.576Z,14.60
2023-05-10T13:13:48.174Z,14.70
2023-05-10T13:18:05.502Z,14.70
2023-05-10T13:22:36.345Z,14.80
2023-05-10T13:27:01.730Z,14.90
2023-05-10T13:31:21.706Z,15.00
2023-05-10T13:35:39.152Z,15.20
2023-05-10T13:39:57.302Z,15.30
2023-05-10T13:44:17.060Z,15.50
2023-05-10T13:48:39.110Z,15.70
2023-05-10T13:52:57.467Z,16.00
2023-05-10T13:57:17.743Z,16.10
2023-05-10T14:01:38.025Z,16.20
2023-05-10T14:05:57.943Z,16.20
2023-05-10T14:10:16.298Z,16.30
2023-05-10T14:14:34.017Z,16.40
2023-05-10T14:18:53.398Z,16.40
2023-05-10T14:23:13.511Z,16.50
2023-05-10T14:27:31.414Z,16.50
2023-05-10T14:31:49.328Z,16.60
2023-05-10T14:36:09.835Z,16.70
2023-05-10T14:40:28.541Z,16.90
2023-05-10T14:44:46.567Z,17.00
2023-05-10T14:49:04.564Z,17.10
2023-05-10T14:53:23.887Z,17.10
2023-05-10T14:57:45.119Z,17.20
2023-05-10T15:02:05.296Z,17.10
2023-05-10T15:06:32.551Z,17.10
2023-05-10T15:10:51.463Z,17.10
2023-05-10T15:15:11.458Z,17.00
2023-05-10T15:19:29.806Z,17.00
2023-05-10T15:23:47.319Z,16.90
2023-05-10T15:28:07.189Z,16.80
2023-05-10T15:32:26.714Z,16.70
2023-05-10T15:36:44.542Z,16.60
2023-05-10T15:41:02.665Z,16.40
2023-05-10T15:45:22.772Z,16.30
2023-05-10T15:49:42.092Z,16.30
2023-05-10T15:54:07.233Z,16.20
2023-05-10T15:58:27.105Z,16.20
2023-05-10T16:02:46.804Z,16.20
2023-05-10T16:07:06.403Z,16.20
2023-05-10T16:11:24.570Z,16.10
2023-05-10T16:15:43.041Z,16.10
2023-05-10T16:20:02.455Z,16.00
2023-05-10T16:24:22.426Z,16.00
2023-05-10T16:28:40.316Z,16.00
2023-05-10T16:32:58.041Z,16.00
2023-05-10T16:37:17.499Z,16.00
2023-05-10T16:41:37.291Z,16.00
2023-05-10T16:45:55.034Z,16.10
2023-05-10T16:50:40.233Z,16.10
2023-05-10T16:54:59.130Z,16.10
2023-05-10T16:59:17.493Z,16.10
2023-05-10T17:03:34.981Z,16.10
2023-05-10T17:07:56.278Z,16.10
2023-05-10T17:12:14.193Z,16.10
2023-05-10T17:16:32.063Z,16.10
2023-05-10T17:20:50.593Z,16.00
2023-05-10T17:25:10.653Z,16.00
2023-05-10T17:29:29.478Z,15.90
2023-05-10T17:33:47.519Z,15.90
2023-05-10T17:38:05.796Z,15.80
2023-05-10T17:42:25.114Z,15.70
2023-05-10T17:46:44.610Z,15.70
2023-05-10T17:51:02.822Z,15.60
2023-05-10T17:55:20.980Z,15.60
2023-05-10T17:59:40.120Z,15.50
2023-05-10T18:03:59.951Z,15.40
2023-05-10T18:08:22.654Z,15.40
2023-05-10T18:12:42.190Z,15.40
2023-05-10T18:17:02.284Z,15.40
2023-05-10T18:21:21.829Z,15.40
2023-05-10T18:25:40.038Z,15.40
2023-05-10T18:29:57.672Z,15.30
2023-05-10T18:34:16.983Z,15.40
2023-05-10T18:38:37.252Z,15.40
2023-05-10T18:42:54.678Z,15.30
2023-05-10T18:47:12.987Z,15.30
2023-05-10T18:51:32.552Z,15.30
2023-05-10T18:55:58.678Z,15.30
2023-05-10T19:00:16.612Z,15.20
2023-05-10T19:04:34.214Z,15.20
2023-05-10T19:08:53.784Z,15.20
2023-05-10T19:13:15.059Z,15.20
2023-05-10T19:17:36.337Z,15.10
2023-05-10T19:21:55.678Z,15.10
2023-05-10T19:26:15.232Z,15.00
2023-05-10T19:30:34.923Z,15.00
2023-05-10T19:34:53.265Z,15.00
2023-05-10T19:39:11.688Z,14.90
2023-05-10T19:43:34.070Z,14.90
2023-05-10T19:47:53.193Z,14.90
2023-05-10T19:52:12.240Z,14.80
2023-05-10T19:56:32.448Z,14.80
2023-05-10T20:00:51.764Z,14.70
2023-05-10T20:05:12.253Z,14.50
2023-05-10T20:09:29.784Z,14.50
2023-05-10T20:13:47.833Z,14.40
2023-05-10T20:18:07.732Z,14.40
2023-05-10T20:22:27.727Z,14.40
2023-05-10T20:26:45.132Z,14.40
2023-05-10T20:31:03.445Z,14.40
2023-05-10T20:35:22.549Z,14.40
2023-05-10T20:39:42.266Z,14.40
2023-05-10T20:44:00.462Z,14.50
2023-05-10T20:48:19.781Z,14.50
2023-05-10T20:52:40.944Z,14.50
2023-05-10T20:57:03.648Z,14.50
2023-05-10T21:01:23.740Z,14.40
2023-05-10T21:05:43.567Z,14.30
2023-05-10T21:10:06.259Z,14.20
2023-05-10T21:14:24.989Z,14.10
2023-05-10T21:18:43.023Z,14.00
2023-05-10T21:23:01.735Z,13.90
2023-05-10T21:27:20.790Z,13.90
2023-05-10T21:31:40.263Z,13.90
2023-05-10T21:35:58.269Z,13.80
2023-05-10T21:40:16.976Z,13.80
2023-05-10T21:44:37.103Z,13.70
2023-05-10T21:48:55.688Z,13.70
2023-05-10T21:53:13.554Z,13.70
2023-05-10T21:57:31.746Z,13.70
2023-05-10T22:01:51.118Z,13.70
2023-05-10T22:06:10.892Z,13.60
2023-05-10T22:10:29.448Z,13.60
2023-05-10T22:14:48.647Z,13.60
2023-05-10T22:19:12.774Z,13.60
2023-05-10T22:23:32.119Z,13.60
2023-05-10T22:27:50.288Z,13.60
2023-05-10T22:32:08.322Z,13.60
2023-05-10T22:36:27.775Z,13.50
2023-05-10T22:40:47.552Z,13.50
2023-05-10T22:45:07.035Z,13.50
2023-05-10T22:49:26.914Z,13.50
2023-05-10T22:53:46.836Z,13.50
2023-05-10T22:58:05.988Z,13.50
2023-05-10T23:02:23.996Z,13.40
2023-05-10T23:06:42.186Z,13.40
2023-05-10T23:11:01.824Z,13.40
2023-05-10T23:15:21.220Z,13.40
2023-05-10T23:19:39.331Z,13.40
2023-05-10T23:23:57.302Z,13.40
2023-05-10T23:28:16.722Z,13.40
2023-05-10T23:32:36.576Z,13.40
2023-05-10T23:36:54.610Z,13.40
2023-05-10T23:41:12.689Z,13.40
2023-05-10T23:45:32.429Z,13.40
2023-05-10T23:49:51.895Z,13.40
2023-05-10T23:54:09.852Z,13.40
2023-05-10T23:58:31.428Z,13.40
